This is the latest recevied weather packets stored in our database for station/object E27EKO-13. If no packets are shown the sender has not sent any weather packets the latest 10 day(s).
| Time | Temp. | Humidity | Pressure | Rain* | Wind** | Luminosity | Snow |
|---|---|---|---|---|---|---|---|
| 1777181501 | 34.44° C | 71% | 1009 hPa | - | - | 0 W/m² | - |
| 1777181179 | 33.89° C | 74% | 1009 hPa | - | - | 0 W/m² | - |
| 1777180896 | 33.33° C | 75% | 1010 hPa | - | - | 0 W/m² | - |
| 1777180574 | 33.33° C | 75% | 1010 hPa | - | - | 0 W/m² | - |
| 1777180252 | 33.89° C | 72% | 1010 hPa | - | - | 0 W/m² | - |
| 1777179930 | 33.33° C | 73% | 1009 hPa | - | - | 0 W/m² | - |
| 1777179608 | 33.89° C | 70% | 1010 hPa | - | - | 0 W/m² | - |
| 1777179286 | 33.89° C | 66% | 1010 hPa | - | - | 0 W/m² | - |
| 1777178964 | 34.44° C | 63% | 1010 hPa | - | - | 0 W/m² | - |
| 1777178642 | 33.89° C | 65% | 1010 hPa | - | - | 0 W/m² | - |
| 1777178320 | 33.89° C | 65% | 1010 hPa | - | - | 0 W/m² | - |
| 1777177998 | 33.89° C | 65% | 1010 hPa | - | - | 0 W/m² | - |
| 1777177676 | 34.44° C | 65% | 1010 hPa | - | - | 0 W/m² | - |
| 1777177354 | 34.44° C | 63% | 1010 hPa | - | - | 0 W/m² | - |
| 1777177032 | 35.56° C | 61% | 1010 hPa | - | - | 0 W/m² | - |
| 1777176710 | 35° C | 61% | 1010 hPa | - | - | 0 W/m² | - |
| 1777176388 | 35.56° C | 59% | 1010 hPa | - | - | 0 W/m² | - |
| 1777176066 | 35° C | 61% | 1010 hPa | - | - | 0 W/m² | - |
| 1777175962 | 35° C | 61% | 1010 hPa | - | - | 0 W/m² | - |
| 1777175640 | 35.56° C | 59% | 1010 hPa | - | - | 0 W/m² | - |
| 1777175318 | 37.22° C | 55% | 1010 hPa | - | - | 0 W/m² | - |
| 1777174996 | 37.22° C | 53% | 1010 hPa | - | - | 0 W/m² | - |
| 1777174599 | 37.78° C | 53% | 1010 hPa | - | - | 0 W/m² | - |
| 1777174276 | 37.78° C | 52% | 1010 hPa | - | - | 0 W/m² | - |
| 1777173954 | 37.78° C | 52% | 1010 hPa | - | - | 0 W/m² | - |
* Rain since midnight (hover to see other rain measurements)
** Current wind speed in m/s (hover to see current wind gust speed)